sensor_id;sensor_type;location;lat;lon;timestamp;pressure;altitude;pressure_sealevel;temperature;humidity
25526;BME280;13424;48.424;11.258;2023-07-20T00:01:48;95423.56;;;22.42;74.44
25526;BME280;13424;48.424;11.258;2023-07-20T00:04:14;95419.72;;;22.43;74.08
25526;BME280;13424;48.424;11.258;2023-07-20T00:06:40;95429.31;;;22.57;71.86
25526;BME280;13424;48.424;11.258;2023-07-20T00:09:09;95426.78;;;22.44;70.29
25526;BME280;13424;48.424;11.258;2023-07-20T00:11:38;95422.78;;;22.76;71.51
25526;BME280;13424;48.424;11.258;2023-07-20T00:14:07;95429.97;;;22.46;70.92
25526;BME280;13424;48.424;11.258;2023-07-20T00:16:33;95441.47;;;22.51;70.67
25526;BME280;13424;48.424;11.258;2023-07-20T00:18:59;95441.94;;;22.71;70.35
25526;BME280;13424;48.424;11.258;2023-07-20T00:21:25;95436.97;;;22.81;69.56
25526;BME280;13424;48.424;11.258;2023-07-20T00:23:51;95433.19;;;22.91;67.93
25526;BME280;13424;48.424;11.258;2023-07-20T00:26:17;95436.19;;;22.72;69.00
25526;BME280;13424;48.424;11.258;2023-07-20T00:28:43;95423.56;;;22.59;70.21
25526;BME280;13424;48.424;11.258;2023-07-20T00:31:09;95424.06;;;22.70;67.20
25526;BME280;13424;48.424;11.258;2023-07-20T00:33:36;95427.25;;;22.89;69.17
25526;BME280;13424;48.424;11.258;2023-07-20T00:36:02;95422.91;;;22.79;69.63
25526;BME280;13424;48.424;11.258;2023-07-20T00:42:15;95430.44;;;22.74;71.11
25526;BME280;13424;48.424;11.258;2023-07-20T00:44:41;95425.31;;;22.81;69.39
25526;BME280;13424;48.424;11.258;2023-07-20T00:47:07;95426.59;;;22.75;69.08
25526;BME280;13424;48.424;11.258;2023-07-20T00:49:33;95426.13;;;22.47;68.89
25526;BME280;13424;48.424;11.258;2023-07-20T00:52:00;95422.44;;;22.69;67.15
25526;BME280;13424;48.424;11.258;2023-07-20T00:54:27;95425.16;;;22.69;69.97
25526;BME280;13424;48.424;11.258;2023-07-20T00:56:53;95429.63;;;22.56;70.29
25526;BME280;13424;48.424;11.258;2023-07-20T00:59:21;95428.22;;;22.76;68.17
25526;BME280;13424;48.424;11.258;2023-07-20T01:01:47;95425.47;;;22.41;67.05
25526;BME280;13424;48.424;11.258;2023-07-20T01:04:13;95434.13;;;22.61;65.88
25526;BME280;13424;48.424;11.258;2023-07-20T01:11:38;95429.16;;;22.45;64.49
25526;BME280;13424;48.424;11.258;2023-07-20T01:14:08;95427.72;;;22.56;63.99
25526;BME280;13424;48.424;11.258;2023-07-20T01:16:35;95424.66;;;22.67;64.76
25526;BME280;13424;48.424;11.258;2023-07-20T01:19:01;95430.09;;;22.67;66.02
25526;BME280;13424;48.424;11.258;2023-07-20T01:21:59;95428.19;;;22.58;67.89
25526;BME280;13424;48.424;11.258;2023-07-20T01:24:50;95427.91;;;22.51;67.26
25526;BME280;13424;48.424;11.258;2023-07-20T01:28:08;95424.53;;;22.54;66.01
25526;BME280;13424;48.424;11.258;2023-07-20T01:31:24;95428.84;;;22.55;69.06
25526;BME280;13424;48.424;11.258;2023-07-20T01:33:55;95420.84;;;22.68;68.65
25526;BME280;13424;48.424;11.258;2023-07-20T01:36:24;95431.72;;;22.59;68.24
25526;BME280;13424;48.424;11.258;2023-07-20T01:38:52;95427.06;;;22.51;67.27
25526;BME280;13424;48.424;11.258;2023-07-20T01:41:19;95432.19;;;22.70;66.19
25526;BME280;13424;48.424;11.258;2023-07-20T01:43:46;95429.31;;;22.40;68.61
25526;BME280;13424;48.424;11.258;2023-07-20T01:46:12;95425.47;;;22.33;69.29
25526;BME280;13424;48.424;11.258;2023-07-20T01:48:38;95431.38;;;22.26;68.13
25526;BME280;13424;48.424;11.258;2023-07-20T01:51:04;95422.09;;;22.27;66.49
25526;BME280;13424;48.424;11.258;2023-07-20T01:53:29;95432.03;;;22.40;67.89
25526;BME280;13424;48.424;11.258;2023-07-20T01:55:57;95423.22;;;22.35;66.72
25526;BME280;13424;48.424;11.258;2023-07-20T01:58:23;95432.50;;;22.34;68.24
25526;BME280;13424;48.424;11.258;2023-07-20T02:00:50;95429.78;;;22.25;67.74
25526;BME280;13424;48.424;11.258;2023-07-20T02:03:25;95430.75;;;22.29;67.47
25526;BME280;13424;48.424;11.258;2023-07-20T02:05:52;95434.25;;;22.12;66.32
25526;BME280;13424;48.424;11.258;2023-07-20T02:08:18;95436.22;;;21.89;67.52
25526;BME280;13424;48.424;11.258;2023-07-20T02:10:48;95437.03;;;21.98;66.50
25526;BME280;13424;48.424;11.258;2023-07-20T02:13:15;95435.59;;;21.92;65.99
25526;BME280;13424;48.424;11.258;2023-07-20T02:15:41;95458.84;;;22.16;65.97
25526;BME280;13424;48.424;11.258;2023-07-20T02:18:11;95454.66;;;22.10;66.62
25526;BME280;13424;48.424;11.258;2023-07-20T02:20:37;95444.13;;;21.68;65.08
25526;BME280;13424;48.424;11.258;2023-07-20T02:23:03;95450.84;;;21.80;64.20
25526;BME280;13424;48.424;11.258;2023-07-20T02:25:29;95452.50;;;21.89;64.93
25526;BME280;13424;48.424;11.258;2023-07-20T02:27:56;95452.22;;;21.60;63.32
25526;BME280;13424;48.424;11.258;2023-07-20T02:30:22;95448.13;;;21.71;62.84
25526;BME280;13424;48.424;11.258;2023-07-20T02:32:48;95453.28;;;21.81;62.42
25526;BME280;13424;48.424;11.258;2023-07-20T02:35:16;95445.91;;;21.73;62.86
25526;BME280;13424;48.424;11.258;2023-07-20T02:37:42;95454.13;;;21.51;62.55
25526;BME280;13424;48.424;11.258;2023-07-20T02:41:00;95447.56;;;21.91;63.41
25526;BME280;13424;48.424;11.258;2023-07-20T02:43:26;95450.06;;;21.79;62.71
25526;BME280;13424;48.424;11.258;2023-07-20T02:45:53;95451.88;;;21.53;63.09
25526;BME280;13424;48.424;11.258;2023-07-20T02:48:19;95451.34;;;21.73;61.73
25526;BME280;13424;48.424;11.258;2023-07-20T02:50:50;95453.13;;;21.86;61.56
25526;BME280;13424;48.424;11.258;2023-07-20T02:53:17;95456.19;;;21.93;62.47
25526;BME280;13424;48.424;11.258;2023-07-20T02:55:43;95455.72;;;21.52;62.11
25526;BME280;13424;48.424;11.258;2023-07-20T02:58:08;95456.59;;;21.38;62.61
25526;BME280;13424;48.424;11.258;2023-07-20T03:00:34;95454.03;;;20.88;63.01
25526;BME280;13424;48.424;11.258;2023-07-20T03:03:00;95456.06;;;21.59;61.93
25526;BME280;13424;48.424;11.258;2023-07-20T03:05:26;95458.63;;;21.64;62.05
25526;BME280;13424;48.424;11.258;2023-07-20T03:07:55;95461.94;;;21.52;62.07
25526;BME280;13424;48.424;11.258;2023-07-20T03:10:21;95471.91;;;21.34;62.41
25526;BME280;13424;48.424;11.258;2023-07-20T03:12:47;95461.09;;;21.43;63.32
25526;BME280;13424;48.424;11.258;2023-07-20T03:15:13;95461.91;;;21.21;62.39
25526;BME280;13424;48.424;11.258;2023-07-20T03:17:46;95469.91;;;21.26;61.72
25526;BME280;13424;48.424;11.258;2023-07-20T03:20:11;95466.16;;;21.36;61.53
25526;BME280;13424;48.424;11.258;2023-07-20T03:22:38;95469.66;;;21.14;62.82
25526;BME280;13424;48.424;11.258;2023-07-20T03:25:05;95466.19;;;21.44;61.32
25526;BME280;13424;48.424;11.258;2023-07-20T03:27:32;95479.16;;;21.25;61.70
25526;BME280;13424;48.424;11.258;2023-07-20T03:30:00;95480.03;;;21.34;62.10
25526;BME280;13424;48.424;11.258;2023-07-20T03:32:26;95485.50;;;21.43;61.94
25526;BME280;13424;48.424;11.258;2023-07-20T03:34:52;95480.56;;;21.23;62.25
25526;BME280;13424;48.424;11.258;2023-07-20T03:37:18;95480.63;;;21.31;61.31
25526;BME280;13424;48.424;11.258;2023-07-20T03:39:44;95492.16;;;21.14;62.33
25526;BME280;13424;48.424;11.258;2023-07-20T03:42:10;95479.97;;;20.81;62.30
25526;BME280;13424;48.424;11.258;2023-07-20T03:44:36;95487.44;;;21.42;61.22
25526;BME280;13424;48.424;11.258;2023-07-20T03:47:03;95480.03;;;21.12;62.18
25526;BME280;13424;48.424;11.258;2023-07-20T03:49:30;95481.38;;;21.01;62.25
25526;BME280;13424;48.424;11.258;2023-07-20T03:51:56;95487.47;;;21.06;62.49
25526;BME280;13424;48.424;11.258;2023-07-20T03:54:22;95488.59;;;21.05;61.66
25526;BME280;13424;48.424;11.258;2023-07-20T03:56:48;95490.09;;;20.75;61.81
25526;BME280;13424;48.424;11.258;2023-07-20T03:59:14;95497.22;;;21.30;60.66
25526;BME280;13424;48.424;11.258;2023-07-20T04:01:40;95496.03;;;21.00;60.51
25526;BME280;13424;48.424;11.258;2023-07-20T04:04:07;95506.47;;;21.29;60.72
25526;BME280;13424;48.424;11.258;2023-07-20T04:06:34;95506.22;;;21.39;60.46
25526;BME280;13424;48.424;11.258;2023-07-20T04:09:00;95503.47;;;21.30;60.22
25526;BME280;13424;48.424;11.258;2023-07-20T04:11:26;95505.41;;;21.38;59.79
25526;BME280;13424;48.424;11.258;2023-07-20T04:14:40;95507.94;;;20.90;59.39
25526;BME280;13424;48.424;11.258;2023-07-20T04:17:06;95505.91;;;21.18;58.70
25526;BME280;13424;48.424;11.258;2023-07-20T04:19:32;95505.59;;;20.97;59.00
25526;BME280;13424;48.424;11.258;2023-07-20T04:21:58;95511.81;;;21.20;59.46
25526;BME280;13424;48.424;11.258;2023-07-20T04:24:23;95514.03;;;21.40;58.82
25526;BME280;13424;48.424;11.258;2023-07-20T04:26:49;95515.78;;;21.36;60.02
25526;BME280;13424;48.424;11.258;2023-07-20T04:29:15;95525.25;;;21.48;60.22
25526;BME280;13424;48.424;11.258;2023-07-20T04:31:43;95526.16;;;21.34;60.20
25526;BME280;13424;48.424;11.258;2023-07-20T04:34:09;95527.84;;;21.53;59.11
25526;BME280;13424;48.424;11.258;2023-07-20T04:36:36;95522.56;;;21.25;58.45
25526;BME280;13424;48.424;11.258;2023-07-20T04:39:04;95523.94;;;21.36;58.48
25526;BME280;13424;48.424;11.258;2023-07-20T04:41:36;95528.72;;;20.95;59.51
25526;BME280;13424;48.424;11.258;2023-07-20T04:44:02;95524.69;;;20.92;58.83
25526;BME280;13424;48.424;11.258;2023-07-20T04:46:30;95530.25;;;21.09;59.37
25526;BME280;13424;48.424;11.258;2023-07-20T04:48:57;95535.09;;;21.35;58.53
25526;BME280;13424;48.424;11.258;2023-07-20T04:51:25;95536.75;;;21.44;58.66
25526;BME280;13424;48.424;11.258;2023-07-20T04:53:54;95532.06;;;21.00;59.35
25526;BME280;13424;48.424;11.258;2023-07-20T04:56:20;95534.25;;;21.12;59.42
25526;BME280;13424;48.424;11.258;2023-07-20T04:58:49;95537.81;;;21.21;59.08
25526;BME280;13424;48.424;11.258;2023-07-20T05:01:15;95533.97;;;21.58;59.30
25526;BME280;13424;48.424;11.258;2023-07-20T05:03:42;95539.06;;;21.60;59.21
25526;BME280;13424;48.424;11.258;2023-07-20T05:06:09;95544.13;;;21.30;59.46
25526;BME280;13424;48.424;11.258;2023-07-20T05:08:35;95545.66;;;21.67;59.60
25526;BME280;13424;48.424;11.258;2023-07-20T05:11:01;95541.09;;;22.16;58.48
25526;BME280;13424;48.424;11.258;2023-07-20T05:13:27;95538.06;;;22.18;58.72
25526;BME280;13424;48.424;11.258;2023-07-20T05:15:53;95544.94;;;21.84;59.73
25526;BME280;13424;48.424;11.258;2023-07-20T05:18:20;95548.13;;;21.33;59.52
25526;BME280;13424;48.424;11.258;2023-07-20T05:20:48;95550.28;;;21.67;58.95
25526;BME280;13424;48.424;11.258;2023-07-20T05:23:18;95544.94;;;21.53;59.70
25526;BME280;13424;48.424;11.258;2023-07-20T05:25:58;95549.13;;;21.90;59.23
25526;BME280;13424;48.424;11.258;2023-07-20T05:28:25;95547.03;;;22.84;57.23
25526;BME280;13424;48.424;11.258;2023-07-20T05:30:55;95552.13;;;23.81;55.08
25526;BME280;13424;48.424;11.258;2023-07-20T05:33:21;95545.28;;;23.49;55.29
25526;BME280;13424;48.424;11.258;2023-07-20T05:35:48;95540.34;;;23.16;56.34
25526;BME280;13424;48.424;11.258;2023-07-20T05:38:16;95542.09;;;23.21;56.51
25526;BME280;13424;48.424;11.258;2023-07-20T05:40:44;95547.03;;;24.17;55.31
25526;BME280;13424;48.424;11.258;2023-07-20T05:43:11;95550.41;;;25.45;52.99
25526;BME280;13424;48.424;11.258;2023-07-20T05:45:37;95551.41;;;25.19;52.40
25526;BME280;13424;48.424;11.258;2023-07-20T05:48:03;95550.84;;;24.34;52.82
25526;BME280;13424;48.424;11.258;2023-07-20T05:50:29;95543.00;;;23.59;54.30
25526;BME280;13424;48.424;11.258;2023-07-20T05:52:55;95552.66;;;23.39;55.28
25526;BME280;13424;48.424;11.258;2023-07-20T05:55:21;95553.63;;;23.00;56.51
25526;BME280;13424;48.424;11.258;2023-07-20T05:57:47;95555.97;;;22.84;56.24
25526;BME280;13424;48.424;11.258;2023-07-20T06:00:15;95547.66;;;22.81;55.84
25526;BME280;13424;48.424;11.258;2023-07-20T06:02:41;95551.66;;;21.87;57.99
25526;BME280;13424;48.424;11.258;2023-07-20T06:05:09;95556.56;;;22.55;57.42
25526;BME280;13424;48.424;11.258;2023-07-20T06:07:38;95563.16;;;22.72;57.90
25526;BME280;13424;48.424;11.258;2023-07-20T06:10:06;95560.63;;;22.84;58.25
25526;BME280;13424;48.424;11.258;2023-07-20T06:12:32;95564.41;;;22.66;56.90
25526;BME280;13424;48.424;11.258;2023-07-20T06:15:12;95564.75;;;22.81;57.88
25526;BME280;13424;48.424;11.258;2023-07-20T06:17:49;95565.78;;;22.37;58.00
25526;BME280;13424;48.424;11.258;2023-07-20T06:20:15;95568.97;;;22.88;56.98
25526;BME280;13424;48.424;11.258;2023-07-20T06:22:41;95556.81;;;22.85;57.04
25526;BME280;13424;48.424;11.258;2023-07-20T06:25:07;95564.19;;;22.93;55.82
25526;BME280;13424;48.424;11.258;2023-07-20T06:27:33;95558.81;;;22.53;57.20
25526;BME280;13424;48.424;11.258;2023-07-20T06:29:59;95564.78;;;22.90;57.26
25526;BME280;13424;48.424;11.258;2023-07-20T06:32:25;95557.28;;;23.13;56.19
25526;BME280;13424;48.424;11.258;2023-07-20T06:34:51;95561.28;;;23.33;56.37
25526;BME280;13424;48.424;11.258;2023-07-20T06:37:17;95553.38;;;22.53;56.95
25526;BME280;13424;48.424;11.258;2023-07-20T06:39:43;95548.47;;;22.90;56.59
25526;BME280;13424;48.424;11.258;2023-07-20T06:42:08;95546.59;;;23.17;56.57
25526;BME280;13424;48.424;11.258;2023-07-20T06:44:34;95550.09;;;22.91;56.43
25526;BME280;13424;48.424;11.258;2023-07-20T06:47:00;95551.31;;;22.68;57.01
25526;BME280;13424;48.424;11.258;2023-07-20T06:49:38;95552.59;;;22.79;55.75
25526;BME280;13424;48.424;11.258;2023-07-20T06:52:05;95564.19;;;22.93;56.14
25526;BME280;13424;48.424;11.258;2023-07-20T06:54:34;95560.16;;;22.91;55.33
25526;BME280;13424;48.424;11.258;2023-07-20T06:57:00;95559.69;;;22.97;56.70
25526;BME280;13424;48.424;11.258;2023-07-20T06:59:26;95559.06;;;22.92;56.74
25526;BME280;13424;48.424;11.258;2023-07-20T07:01:52;95562.22;;;23.72;56.21
25526;BME280;13424;48.424;11.258;2023-07-20T07:04:18;95562.41;;;23.40;57.28
25526;BME280;13424;48.424;11.258;2023-07-20T07:06:43;95560.34;;;23.11;56.52
25526;BME280;13424;48.424;11.258;2023-07-20T07:09:10;95567.50;;;23.51;56.45
25526;BME280;13424;48.424;11.258;2023-07-20T07:11:36;95553.44;;;23.40;55.11
25526;BME280;13424;48.424;11.258;2023-07-20T07:14:02;95560.91;;;23.78;55.13
25526;BME280;13424;48.424;11.258;2023-07-20T07:16:28;95558.19;;;23.78;55.44
25526;BME280;13424;48.424;11.258;2023-07-20T07:18:54;95564.94;;;23.72;55.00
25526;BME280;13424;48.424;11.258;2023-07-20T07:21:21;95563.53;;;23.39;54.56
25526;BME280;13424;48.424;11.258;2023-07-20T07:23:46;95556.47;;;24.20;55.29
25526;BME280;13424;48.424;11.258;2023-07-20T07:26:13;95566.09;;;24.17;54.35
25526;BME280;13424;48.424;11.258;2023-07-20T07:28:39;95567.97;;;24.34;53.20
25526;BME280;13424;48.424;11.258;2023-07-20T07:31:06;95558.69;;;24.27;53.09
25526;BME280;13424;48.424;11.258;2023-07-20T07:33:33;95561.72;;;24.63;53.83
25526;BME280;13424;48.424;11.258;2023-07-20T07:35:58;95561.44;;;24.56;52.84
25526;BME280;13424;48.424;11.258;2023-07-20T07:38:24;95563.53;;;24.12;53.00
25526;BME280;13424;48.424;11.258;2023-07-20T07:40:59;95568.84;;;24.47;52.53
25526;BME280;13424;48.424;11.258;2023-07-20T07:43:25;95565.78;;;24.78;52.43
25526;BME280;13424;48.424;11.258;2023-07-20T07:45:54;95566.88;;;24.86;51.47
25526;BME280;13424;48.424;11.258;2023-07-20T07:48:21;95565.97;;;24.52;52.63
25526;BME280;13424;48.424;11.258;2023-07-20T07:50:48;95569.06;;;24.42;52.97
25526;BME280;13424;48.424;11.258;2023-07-20T07:53:15;95568.34;;;24.54;52.33
25526;BME280;13424;48.424;11.258;2023-07-20T07:55:41;95569.78;;;25.10;51.12
25526;BME280;13424;48.424;11.258;2023-07-20T07:58:07;95563.91;;;24.49;52.19
25526;BME280;13424;48.424;11.258;2023-07-20T08:00:33;95568.22;;;25.00;51.69
25526;BME280;13424;48.424;11.258;2023-07-20T08:02:59;95563.16;;;24.90;50.73
25526;BME280;13424;48.424;11.258;2023-07-20T08:05:25;95561.41;;;24.65;51.19
25526;BME280;13424;48.424;11.258;2023-07-20T08:07:52;95566.09;;;24.17;51.79
25526;BME280;13424;48.424;11.258;2023-07-20T08:10:18;95567.00;;;24.68;51.45
25526;BME280;13424;48.424;11.258;2023-07-20T08:12:44;95570.03;;;24.67;51.92
25526;BME280;13424;48.424;11.258;2023-07-20T08:15:13;95564.22;;;24.98;49.11
25526;BME280;13424;48.424;11.258;2023-07-20T08:17:41;95568.41;;;24.45;51.53
25526;BME280;13424;48.424;11.258;2023-07-20T08:20:10;95570.19;;;24.70;51.35
25526;BME280;13424;48.424;11.258;2023-07-20T08:22:45;95566.88;;;24.65;50.04
25526;BME280;13424;48.424;11.258;2023-07-20T08:25:11;95570.19;;;24.70;50.42
25526;BME280;13424;48.424;11.258;2023-07-20T08:27:37;95564.38;;;24.04;49.66
25526;BME280;13424;48.424;11.258;2023-07-20T08:30:04;95575.59;;;24.49;51.47
25526;BME280;13424;48.424;11.258;2023-07-20T08:32:32;95574.97;;;24.73;51.48
25526;BME280;13424;48.424;11.258;2023-07-20T08:34:58;95574.66;;;24.96;50.40
25526;BME280;13424;48.424;11.258;2023-07-20T08:37:24;95570.78;;;24.46;49.16
25526;BME280;13424;48.424;11.258;2023-07-20T08:44:16;95566.13;;;25.06;48.58
25526;BME280;13424;48.424;11.258;2023-07-20T08:46:43;95565.13;;;23.49;48.45
25526;BME280;13424;48.424;11.258;2023-07-20T08:49:11;95567.03;;;24.21;53.99
25526;BME280;13424;48.424;11.258;2023-07-20T08:51:37;95571.06;;;25.13;50.92
25526;BME280;13424;48.424;11.258;2023-07-20T08:54:05;95562.38;;;25.31;49.69
25526;BME280;13424;48.424;11.258;2023-07-20T08:56:34;95567.84;;;24.60;52.21
25526;BME280;13424;48.424;11.258;2023-07-20T08:59:01;95570.53;;;24.90;49.93
25526;BME280;13424;48.424;11.258;2023-07-20T09:01:28;95558.50;;;24.91;49.44
25526;BME280;13424;48.424;11.258;2023-07-20T09:03:56;95562.06;;;25.66;48.49
25526;BME280;13424;48.424;11.258;2023-07-20T09:06:22;95566.41;;;26.00;47.73
25526;BME280;13424;48.424;11.258;2023-07-20T09:08:48;95559.81;;;25.68;48.04
25526;BME280;13424;48.424;11.258;2023-07-20T09:11:14;95564.41;;;25.76;48.60
25526;BME280;13424;48.424;11.258;2023-07-20T09:13:40;95564.97;;;25.82;49.64
25526;BME280;13424;48.424;11.258;2023-07-20T09:16:06;95565.91;;;25.53;49.50
25526;BME280;13424;48.424;11.258;2023-07-20T09:18:33;95564.47;;;25.68;50.40
25526;BME280;13424;48.424;11.258;2023-07-20T09:21:05;95557.66;;;25.74;49.32
25526;BME280;13424;48.424;11.258;2023-07-20T09:23:36;95557.06;;;26.13;48.59
25526;BME280;13424;48.424;11.258;2023-07-20T09:26:13;95556.75;;;26.15;48.35
25526;BME280;13424;48.424;11.258;2023-07-20T09:28:50;95552.81;;;25.79;48.86
25526;BME280;13424;48.424;11.258;2023-07-20T09:31:24;95552.59;;;25.84;48.33
25526;BME280;13424;48.424;11.258;2023-07-20T09:33:55;95557.50;;;26.03;48.59
25526;BME280;13424;48.424;11.258;2023-07-20T09:36:20;95556.81;;;25.61;48.57
25526;BME280;13424;48.424;11.258;2023-07-20T09:38:46;95556.22;;;26.46;47.89
25526;BME280;13424;48.424;11.258;2023-07-20T09:41:15;95557.22;;;26.54;47.58
25526;BME280;13424;48.424;11.258;2023-07-20T09:43:45;95557.41;;;26.12;48.05
25526;BME280;13424;48.424;11.258;2023-07-20T09:46:11;95554.28;;;26.59;45.94
25526;BME280;13424;48.424;11.258;2023-07-20T09:52:41;95554.63;;;26.57;47.86
25526;BME280;13424;48.424;11.258;2023-07-20T09:55:10;95554.63;;;25.75;47.48
25526;BME280;13424;48.424;11.258;2023-07-20T09:57:38;95556.97;;;26.22;46.03
25526;BME280;13424;48.424;11.258;2023-07-20T10:00:07;95551.75;;;26.17;46.08
25526;BME280;13424;48.424;11.258;2023-07-20T10:02:45;95558.63;;;26.48;47.20
25526;BME280;13424;48.424;11.258;2023-07-20T10:05:13;95553.94;;;27.25;47.28
25526;BME280;13424;48.424;11.258;2023-07-20T10:07:50;95544.66;;;26.89;47.28
25526;BME280;13424;48.424;11.258;2023-07-20T10:10:19;95540.53;;;25.98;48.85
25526;BME280;13424;48.424;11.258;2023-07-20T10:12:48;95543.06;;;26.03;48.01
25526;BME280;13424;48.424;11.258;2023-07-20T10:15:32;95539.50;;;25.57;47.97
25526;BME280;13424;48.424;11.258;2023-07-20T10:20:42;95540.41;;;26.39;48.55
25526;BME280;13424;48.424;11.258;2023-07-20T10:23:09;95545.69;;;25.99;48.53
25526;BME280;13424;48.424;11.258;2023-07-20T10:25:37;95541.78;;;25.55;48.52
25526;BME280;13424;48.424;11.258;2023-07-20T10:28:05;95537.31;;;26.41;49.08
25526;BME280;13424;48.424;11.258;2023-07-20T10:30:37;95539.91;;;26.25;47.67
25526;BME280;13424;48.424;11.258;2023-07-20T10:33:05;95541.72;;;26.33;47.08
25526;BME280;13424;48.424;11.258;2023-07-20T10:35:53;95533.28;;;26.26;47.83
25526;BME280;13424;48.424;11.258;2023-07-20T10:38:20;95535.44;;;26.21;49.06
25526;BME280;13424;48.424;11.258;2023-07-20T10:40:55;95531.06;;;26.40;47.72
25526;BME280;13424;48.424;11.258;2023-07-20T10:43:27;95538.97;;;26.70;48.12
25526;BME280;13424;48.424;11.258;2023-07-20T10:45:53;95533.63;;;26.25;50.31
25526;BME280;13424;48.424;11.258;2023-07-20T10:48:24;95526.34;;;26.65;47.94
25526;BME280;13424;48.424;11.258;2023-07-20T10:51:13;95523.78;;;27.09;47.61
25526;BME280;13424;48.424;11.258;2023-07-20T10:53:41;95523.22;;;26.91;47.46
25526;BME280;13424;48.424;11.258;2023-07-20T10:56:18;95523.28;;;26.79;46.72
25526;BME280;13424;48.424;11.258;2023-07-20T10:58:45;95528.44;;;25.74;50.23
25526;BME280;13424;48.424;11.258;2023-07-20T11:01:17;95525.78;;;26.23;46.92
25526;BME280;13424;48.424;11.258;2023-07-20T11:03:48;95521.69;;;26.66;49.73
25526;BME280;13424;48.424;11.258;2023-07-20T11:06:30;95523.19;;;26.63;47.38
25526;BME280;13424;48.424;11.258;2023-07-20T11:09:14;95515.19;;;26.70;46.53
25526;BME280;13424;48.424;11.258;2023-07-20T11:11:49;95525.69;;;26.44;47.44
25526;BME280;13424;48.424;11.258;2023-07-20T11:14:26;95517.28;;;27.14;47.63
25526;BME280;13424;48.424;11.258;2023-07-20T11:16:53;95515.13;;;27.07;46.92
25526;BME280;13424;48.424;11.258;2023-07-20T11:19:24;95510.09;;;27.37;46.86
25526;BME280;13424;48.424;11.258;2023-07-20T11:21:58;95507.38;;;27.37;47.20
25526;BME280;13424;48.424;11.258;2023-07-20T11:24:24;95501.88;;;27.09;47.68
25526;BME280;13424;48.424;11.258;2023-07-20T11:26:52;95507.47;;;27.69;48.30
25526;BME280;13424;48.424;11.258;2023-07-20T11:29:22;95503.16;;;27.55;47.06
25526;BME280;13424;48.424;11.258;2023-07-20T11:31:49;95501.06;;;27.65;47.35
25526;BME280;13424;48.424;11.258;2023-07-20T11:34:19;95499.59;;;27.39;46.85
25526;BME280;13424;48.424;11.258;2023-07-20T11:36:48;95501.88;;;27.65;47.91
25526;BME280;13424;48.424;11.258;2023-07-20T11:39:17;95492.53;;;27.10;46.43
25526;BME280;13424;48.424;11.258;2023-07-20T11:41:49;95496.22;;;27.30;46.82
25526;BME280;13424;48.424;11.258;2023-07-20T11:44:25;95494.94;;;27.12;48.67
25526;BME280;13424;48.424;11.258;2023-07-20T11:47:05;95489.09;;;26.61;47.50
25526;BME280;13424;48.424;11.258;2023-07-20T11:49:43;95485.25;;;26.50;47.40
25526;BME280;13424;48.424;11.258;2023-07-20T11:52:16;95480.78;;;27.38;46.93
25526;BME280;13424;48.424;11.258;2023-07-20T11:54:43;95478.31;;;27.92;47.72
25526;BME280;13424;48.424;11.258;2023-07-20T11:57:20;95469.75;;;27.34;46.61
25526;BME280;13424;48.424;11.258;2023-07-20T12:00:03;95466.88;;;27.59;47.02
25526;BME280;13424;48.424;11.258;2023-07-20T12:02:34;95470.06;;;27.61;45.60
25526;BME280;13424;48.424;11.258;2023-07-20T12:05:02;95471.78;;;27.81;46.59
25526;BME280;13424;48.424;11.258;2023-07-20T12:07:34;95464.38;;;27.97;46.67
25526;BME280;13424;48.424;11.258;2023-07-20T12:10:11;95463.81;;;28.39;45.91
25526;BME280;13424;48.424;11.258;2023-07-20T12:12:43;95463.09;;;28.26;44.56
25526;BME280;13424;48.424;11.258;2023-07-20T12:15:23;95463.94;;;28.97;45.85
25526;BME280;13424;48.424;11.258;2023-07-20T12:17:52;95459.88;;;27.89;45.59
25526;BME280;13424;48.424;11.258;2023-07-20T12:20:45;95457.81;;;27.86;46.04
25526;BME280;13424;48.424;11.258;2023-07-20T12:23:13;95454.38;;;27.89;45.02
25526;BME280;13424;48.424;11.258;2023-07-20T12:25:44;95450.13;;;28.58;45.18
25526;BME280;13424;48.424;11.258;2023-07-20T12:28:12;95443.94;;;28.61;46.58
25526;BME280;13424;48.424;11.258;2023-07-20T12:30:41;95446.00;;;29.23;44.67
25526;BME280;13424;48.424;11.258;2023-07-20T12:33:08;95444.47;;;28.86;45.05
25526;BME280;13424;48.424;11.258;2023-07-20T12:35:34;95440.25;;;29.08;45.70
25526;BME280;13424;48.424;11.258;2023-07-20T12:38:01;95447.25;;;29.25;45.09
25526;BME280;13424;48.424;11.258;2023-07-20T12:40:27;95456.31;;;29.48;44.34
25526;BME280;13424;48.424;11.258;2023-07-20T12:42:53;95443.22;;;28.64;42.61
25526;BME280;13424;48.424;11.258;2023-07-20T12:45:19;95443.50;;;27.77;44.63
25526;BME280;13424;48.424;11.258;2023-07-20T12:47:45;95435.16;;;28.21;44.43
25526;BME280;13424;48.424;11.258;2023-07-20T12:50:11;95442.63;;;28.04;44.15
25526;BME280;13424;48.424;11.258;2023-07-20T12:52:40;95433.59;;;27.00;45.31
25526;BME280;13424;48.424;11.258;2023-07-20T12:55:08;95433.66;;;27.60;47.76
25526;BME280;13424;48.424;11.258;2023-07-20T12:57:36;95423.69;;;28.31;45.62
25526;BME280;13424;48.424;11.258;2023-07-20T13:00:06;95416.69;;;26.18;47.60
25526;BME280;13424;48.424;11.258;2023-07-20T13:02:35;95422.28;;;28.05;43.70
25526;BME280;13424;48.424;11.258;2023-07-20T13:05:02;95416.22;;;26.81;48.96
25526;BME280;13424;48.424;11.258;2023-07-20T13:07:37;95417.56;;;28.92;46.46
25526;BME280;13424;48.424;11.258;2023-07-20T13:10:05;95412.63;;;28.62;44.13
25526;BME280;13424;48.424;11.258;2023-07-20T13:12:34;95414.06;;;29.14;44.91
25526;BME280;13424;48.424;11.258;2023-07-20T13:15:11;95404.84;;;29.45;40.61
25526;BME280;13424;48.424;11.258;2023-07-20T13:17:39;95401.22;;;28.99;42.29
25526;BME280;13424;48.424;11.258;2023-07-20T13:20:08;95406.56;;;29.11;41.94